createdAt,value
2022-12-19T00:00:32.843Z,7.00
2022-12-19T00:03:02.840Z,3.30
2022-12-19T00:05:14.414Z,3.70
2022-12-19T00:07:24.755Z,2.50
2022-12-19T00:09:34.261Z,2.00
2022-12-19T00:11:44.720Z,1.40
2022-12-19T00:13:55.243Z,1.20
2022-12-19T00:16:10.604Z,1.30
2022-12-19T00:18:21.978Z,6.00
2022-12-19T00:20:31.703Z,3.00
2022-12-19T00:22:42.666Z,4.10
2022-12-19T00:24:52.894Z,1.20
2022-12-19T00:27:02.789Z,1.20
2022-12-19T00:29:14.621Z,1.30
2022-12-19T00:31:24.898Z,10.60
2022-12-19T00:33:34.858Z,3.30
2022-12-19T00:35:47.882Z,4.90
2022-12-19T00:37:58.449Z,2.30
2022-12-19T00:40:09.844Z,1.00
2022-12-19T00:42:21.635Z,1.50
2022-12-19T00:44:31.860Z,1.60
2022-12-19T00:46:42.237Z,1.40
2022-12-19T00:48:52.466Z,5.70
2022-12-19T00:51:05.795Z,4.60
2022-12-19T00:53:17.443Z,2.00
2022-12-19T00:55:27.452Z,2.40
2022-12-19T00:57:37.203Z,1.20
2022-12-19T00:59:47.666Z,1.50
2022-12-19T01:02:00.906Z,3.50
2022-12-19T01:04:28.265Z,5.90
2022-12-19T01:06:38.986Z,4.30
2022-12-19T01:08:48.773Z,3.10
2022-12-19T01:10:59.742Z,1.20
2022-12-19T01:13:09.818Z,1.80
2022-12-19T01:15:22.822Z,1.40
2022-12-19T01:17:43.701Z,5.90
2022-12-19T01:19:55.705Z,3.30
2022-12-19T01:22:05.394Z,4.20
2022-12-19T01:24:18.432Z,3.70
2022-12-19T01:26:32.214Z,3.90
2022-12-19T01:28:41.989Z,4.30
2022-12-19T01:30:52.182Z,3.70
2022-12-19T01:33:05.472Z,1.50
2022-12-19T01:35:21.153Z,1.70
2022-12-19T01:37:31.831Z,1.80
2022-12-19T01:39:41.894Z,1.90
2022-12-19T01:41:53.915Z,1.70
2022-12-19T01:44:05.908Z,4.00
2022-12-19T01:46:28.413Z,2.70
2022-12-19T01:48:42.046Z,2.70
2022-12-19T01:51:01.613Z,2.50
2022-12-19T01:53:15.229Z,2.40
2022-12-19T01:55:26.215Z,2.50
2022-12-19T01:57:36.431Z,2.20
2022-12-19T01:59:51.932Z,8.70
2022-12-19T02:02:10.247Z,4.40
2022-12-19T02:04:23.321Z,3.20
2022-12-19T02:06:36.590Z,1.60
2022-12-19T02:08:50.568Z,1.70
2022-12-19T02:11:00.591Z,1.40
2022-12-19T02:13:13.223Z,1.40
2022-12-19T02:15:24.571Z,1.70
2022-12-19T02:17:43.656Z,4.50
2022-12-19T02:20:47.646Z,2.20
2022-12-19T02:23:17.516Z,4.20
2022-12-19T02:25:57.913Z,2.10
2022-12-19T02:28:34.876Z,1.60
2022-12-19T02:30:59.629Z,2.40
2022-12-19T02:33:24.203Z,2.00
2022-12-19T02:35:42.434Z,2.80
2022-12-19T02:37:57.528Z,1.80
2022-12-19T02:40:13.739Z,4.00
2022-12-19T02:42:31.731Z,4.00
2022-12-19T02:44:49.679Z,3.70
2022-12-19T02:47:00.676Z,2.70
2022-12-19T02:49:11.022Z,0.90
2022-12-19T02:51:24.875Z,1.40
2022-12-19T02:53:35.663Z,1.50
2022-12-19T02:55:50.715Z,1.70
2022-12-19T02:58:31.203Z,1.90
2022-12-19T03:00:48.426Z,4.10
2022-12-19T03:03:09.808Z,2.60
2022-12-19T03:05:26.958Z,1.70
2022-12-19T03:07:44.138Z,2.90
2022-12-19T03:10:03.916Z,2.20
2022-12-19T03:12:20.068Z,1.70
2022-12-19T03:14:32.203Z,1.00
2022-12-19T03:18:50.687Z,1.00
2022-12-19T03:21:08.741Z,1.10
2022-12-19T03:23:21.033Z,0.90
2022-12-19T03:25:34.007Z,1.40
2022-12-19T03:27:47.251Z,0.90
2022-12-19T03:30:03.631Z,1.20
2022-12-19T03:32:20.637Z,1.20
2022-12-19T03:34:34.462Z,1.30
2022-12-19T03:36:49.363Z,1.40
2022-12-19T03:39:02.083Z,1.20
2022-12-19T03:41:16.219Z,1.40
2022-12-19T03:43:28.035Z,1.30
2022-12-19T03:45:46.741Z,1.70
2022-12-19T03:48:02.448Z,1.40
2022-12-19T03:50:13.345Z,1.50
2022-12-19T03:52:32.115Z,1.20
2022-12-19T03:54:44.092Z,1.20
2022-12-19T03:57:00.055Z,1.50
2022-12-19T03:59:17.988Z,1.80
2022-12-19T04:01:30.152Z,5.90
2022-12-19T04:05:50.551Z,1.80
2022-12-19T04:08:04.474Z,1.80
2022-12-19T04:10:18.376Z,2.20
2022-12-19T04:12:32.500Z,2.00
2022-12-19T04:14:43.200Z,2.20
2022-12-19T04:16:59.181Z,3.30
2022-12-19T04:19:14.774Z,2.60
2022-12-19T04:21:32.255Z,2.90
2022-12-19T04:23:45.976Z,2.40
2022-12-19T04:26:00.108Z,2.50
2022-12-19T04:28:14.728Z,1.80
2022-12-19T04:30:24.885Z,1.70
2022-12-19T04:32:38.013Z,1.80
2022-12-19T04:34:48.105Z,1.70
2022-12-19T04:36:57.871Z,1.50
2022-12-19T04:39:08.001Z,1.70
2022-12-19T04:41:18.360Z,2.20
2022-12-19T04:43:28.105Z,2.20
2022-12-19T04:45:37.787Z,1.80
2022-12-19T04:47:48.136Z,2.30
2022-12-19T04:49:59.093Z,2.40
2022-12-19T04:52:09.123Z,2.10
2022-12-19T04:54:18.963Z,2.50
2022-12-19T04:56:28.727Z,2.10
2022-12-19T04:58:39.211Z,2.00
2022-12-19T05:00:48.920Z,2.80
2022-12-19T05:02:58.821Z,2.00
2022-12-19T05:05:09.525Z,2.30
2022-12-19T05:07:19.593Z,2.30
2022-12-19T05:09:29.635Z,2.60
2022-12-19T05:11:39.563Z,2.60
2022-12-19T05:13:50.299Z,3.60
2022-12-19T05:16:04.838Z,3.50
2022-12-19T05:18:14.565Z,2.70
2022-12-19T05:20:25.160Z,2.70
2022-12-19T05:22:35.073Z,2.70
2022-12-19T05:24:45.221Z,2.60
2022-12-19T05:26:55.651Z,2.90
2022-12-19T05:29:06.017Z,3.00
2022-12-19T05:31:17.955Z,2.70
2022-12-19T05:35:40.783Z,2.40
2022-12-19T05:37:51.629Z,2.40
2022-12-19T05:40:01.393Z,2.90
2022-12-19T05:42:12.671Z,2.20
2022-12-19T05:44:23.280Z,2.40
2022-12-19T05:46:34.016Z,2.50
2022-12-19T05:48:44.531Z,2.20
2022-12-19T05:50:54.791Z,2.30
2022-12-19T05:53:04.477Z,2.40
2022-12-19T05:55:15.179Z,2.50
2022-12-19T05:57:25.043Z,2.60
2022-12-19T05:59:35.480Z,2.60
2022-12-19T06:01:45.472Z,2.80
2022-12-19T06:03:56.128Z,3.20
2022-12-19T06:06:09.264Z,2.50
2022-12-19T06:08:19.080Z,3.10
2022-12-19T06:10:29.717Z,2.70
2022-12-19T06:12:39.354Z,2.60
2022-12-19T06:14:49.028Z,2.40
2022-12-19T06:17:01.016Z,3.00
2022-12-19T06:19:10.857Z,2.40
2022-12-19T06:21:22.780Z,2.60
2022-12-19T06:23:34.040Z,2.60
2022-12-19T06:25:43.797Z,2.20
2022-12-19T06:27:53.398Z,3.10
2022-12-19T06:30:03.667Z,3.40
2022-12-19T06:32:13.391Z,3.10
2022-12-19T06:34:54.963Z,2.80
2022-12-19T06:36:57.026Z,2.70
2022-12-19T06:39:06.783Z,2.50
2022-12-19T06:41:34.149Z,2.50
2022-12-19T06:43:45.330Z,2.70
2022-12-19T06:45:59.019Z,3.20
2022-12-19T06:48:09.272Z,3.20
2022-12-19T06:50:19.372Z,2.90
2022-12-19T06:52:28.888Z,3.30
2022-12-19T06:54:38.830Z,3.30
2022-12-19T06:56:48.720Z,2.80
2022-12-19T06:59:02.089Z,3.20
2022-12-19T07:01:19.543Z,2.90
2022-12-19T07:03:32.655Z,2.70
2022-12-19T07:05:42.631Z,3.00
2022-12-19T07:07:52.190Z,2.90
2022-12-19T07:10:02.101Z,2.90
2022-12-19T07:12:12.477Z,3.30
2022-12-19T07:14:22.389Z,2.90
2022-12-19T07:16:32.236Z,2.90
2022-12-19T07:18:43.904Z,2.70
2022-12-19T07:20:53.994Z,3.00
2022-12-19T07:23:04.169Z,3.20
2022-12-19T07:25:14.939Z,3.10
2022-12-19T07:27:27.348Z,3.10
2022-12-19T07:29:41.644Z,8.20
2022-12-19T07:31:52.496Z,5.60
2022-12-19T07:34:02.143Z,5.80
2022-12-19T07:36:14.791Z,5.10
2022-12-19T07:38:24.648Z,6.10
2022-12-19T07:40:34.428Z,5.10
2022-12-19T07:42:44.171Z,5.40
2022-12-19T07:44:53.969Z,5.80
2022-12-19T07:47:03.795Z,4.30
2022-12-19T07:49:16.968Z,3.50
2022-12-19T07:51:29.727Z,2.70
2022-12-19T07:53:40.013Z,2.90
2022-12-19T07:55:51.999Z,2.60
2022-12-19T07:58:01.639Z,2.80
2022-12-19T08:00:13.604Z,2.70
2022-12-19T08:02:24.429Z,4.60
2022-12-19T08:04:34.927Z,6.40
2022-12-19T08:06:45.194Z,4.60
2022-12-19T08:08:55.349Z,4.40
2022-12-19T08:11:12.861Z,3.50
2022-12-19T08:13:22.521Z,3.00
2022-12-19T08:15:33.460Z,3.60
2022-12-19T08:17:43.738Z,3.80
2022-12-19T08:19:53.592Z,3.50
2022-12-19T08:22:03.507Z,3.80
2022-12-19T08:24:13.552Z,3.10
2022-12-19T08:26:25.629Z,7.20
2022-12-19T08:30:44.271Z,5.70
2022-12-19T08:32:54.922Z,5.10
2022-12-19T08:35:05.547Z,5.50
2022-12-19T08:37:18.190Z,5.70
2022-12-19T08:39:28.297Z,6.40
2022-12-19T08:41:38.580Z,5.10
2022-12-19T08:43:52.317Z,2.50
2022-12-19T08:46:03.054Z,3.20
2022-12-19T08:48:13.019Z,2.60
2022-12-19T08:50:23.661Z,2.50
2022-12-19T08:52:34.131Z,2.90
2022-12-19T08:54:45.900Z,2.40
2022-12-19T08:56:55.599Z,5.00
2022-12-19T08:59:06.445Z,4.30
2022-12-19T09:01:19.585Z,2.60
2022-12-19T09:03:36.753Z,2.20
2022-12-19T09:06:09.134Z,2.50
2022-12-19T09:08:22.150Z,3.00
2022-12-19T09:10:31.898Z,3.90
2022-12-19T09:12:41.584Z,4.40
2022-12-19T09:14:52.318Z,3.50
2022-12-19T09:17:03.355Z,3.70
2022-12-19T09:19:16.778Z,5.00
2022-12-19T09:21:27.878Z,2.70
2022-12-19T09:23:38.054Z,2.90
2022-12-19T09:25:47.866Z,2.20
2022-12-19T09:28:26.549Z,1.80
2022-12-19T09:30:27.932Z,1.90
2022-12-19T09:32:38.963Z,2.00
2022-12-19T09:34:50.120Z,3.00
2022-12-19T09:37:00.365Z,3.70
2022-12-19T09:39:12.062Z,3.80
2022-12-19T09:41:46.905Z,4.40
2022-12-19T09:44:06.121Z,3.90
2022-12-19T09:46:21.766Z,3.30
2022-12-19T09:48:31.569Z,3.80
2022-12-19T09:50:52.316Z,3.70
2022-12-19T09:53:05.582Z,3.90
2022-12-19T09:55:23.279Z,2.10
2022-12-19T09:57:41.234Z,1.80
2022-12-19T09:59:56.093Z,2.20
2022-12-19T10:02:17.435Z,2.00
2022-12-19T10:04:30.217Z,2.30
2022-12-19T10:07:21.191Z,5.20
2022-12-19T10:09:35.219Z,4.10
2022-12-19T10:12:38.375Z,4.30
2022-12-19T10:14:45.255Z,3.10
2022-12-19T10:17:26.546Z,3.40
2022-12-19T10:19:44.990Z,3.30
2022-12-19T10:22:18.109Z,3.00
2022-12-19T10:25:08.941Z,3.60
2022-12-19T10:27:28.773Z,1.70
2022-12-19T10:30:04.242Z,1.70
2022-12-19T10:32:25.201Z,1.60
2022-12-19T10:34:39.887Z,2.00
2022-12-19T10:39:35.018Z,3.90
2022-12-19T10:41:46.843Z,2.80
2022-12-19T10:44:06.092Z,2.10
2022-12-19T10:46:21.668Z,2.00
2022-12-19T10:48:31.912Z,2.30
2022-12-19T10:50:41.598Z,2.10
2022-12-19T10:52:55.006Z,3.00
2022-12-19T10:55:05.169Z,2.20
2022-12-19T10:57:28.233Z,2.60
2022-12-19T10:59:37.965Z,2.30
2022-12-19T11:02:00.158Z,3.00
2022-12-19T11:04:28.186Z,2.40
2022-12-19T11:07:06.645Z,2.20
2022-12-19T11:09:30.510Z,3.40
2022-12-19T11:13:18.154Z,2.80
2022-12-19T11:17:12.592Z,3.20
2022-12-19T11:21:08.156Z,4.00
2022-12-19T11:29:30.352Z,1.10
2022-12-19T11:29:40.457Z,3.10
2022-12-19T11:30:09.325Z,1.40
2022-12-19T11:30:39.348Z,1.20
2022-12-19T11:33:09.297Z,1.40
2022-12-19T11:35:25.258Z,1.10
2022-12-19T11:37:55.519Z,4.30
2022-12-19T11:40:13.022Z,3.70
2022-12-19T11:42:28.575Z,2.60
2022-12-19T11:44:44.478Z,2.50
2022-12-19T11:47:01.703Z,3.00
2022-12-19T11:49:19.540Z,3.10
2022-12-19T11:51:35.892Z,1.10
2022-12-19T11:53:54.939Z,0.90
2022-12-19T11:56:16.109Z,1.00
2022-12-19T11:58:30.435Z,1.10
2022-12-19T12:00:43.051Z,1.10
2022-12-19T12:03:28.949Z,1.10
2022-12-19T12:05:58.915Z,4.30
2022-12-19T12:09:46.009Z,3.80
2022-12-19T12:19:39.187Z,3.30
2022-12-19T12:23:37.836Z,2.70
2022-12-19T12:29:21.145Z,2.60
2022-12-19T12:31:06.542Z,1.00
2022-12-19T12:31:13.894Z,3.00
2022-12-19T12:31:51.157Z,1.00
2022-12-19T12:31:53.065Z,0.90
2022-12-19T12:32:06.759Z,2.00
2022-12-19T12:35:16.717Z,0.90
2022-12-19T12:38:46.477Z,1.50
2022-12-19T12:41:09.765Z,6.00
2022-12-19T12:43:37.498Z,3.40
2022-12-19T12:45:48.378Z,3.10
2022-12-19T12:47:58.477Z,3.70
2022-12-19T12:50:15.432Z,3.00
2022-12-19T12:52:31.772Z,3.40
2022-12-19T12:54:45.342Z,0.90
2022-12-19T12:56:56.084Z,1.30
2022-12-19T12:59:24.341Z,1.20
2022-12-19T13:01:38.763Z,0.90
2022-12-19T13:03:57.053Z,1.50
2022-12-19T13:06:24.025Z,1.10
2022-12-19T13:08:41.235Z,1.20
2022-12-19T13:11:00.128Z,3.60
2022-12-19T13:13:22.551Z,2.10
2022-12-19T13:15:43.234Z,1.60
2022-12-19T13:18:25.544Z,1.90
2022-12-19T13:20:51.891Z,3.00
2022-12-19T13:23:22.577Z,2.40
2022-12-19T13:25:53.971Z,1.40
2022-12-19T13:28:38.952Z,2.20
2022-12-19T13:31:23.250Z,1.50
2022-12-19T13:33:49.434Z,1.20
2022-12-19T13:39:46.531Z,1.70
2022-12-19T13:39:57.008Z,2.10
2022-12-19T13:41:26.539Z,1.50
2022-12-19T13:43:50.213Z,1.50
2022-12-19T13:46:01.959Z,1.80
2022-12-19T13:48:20.732Z,1.70
2022-12-19T13:50:38.008Z,1.60
2022-12-19T13:52:53.057Z,1.50
2022-12-19T13:55:02.862Z,1.50
2022-12-19T13:57:24.980Z,1.80
2022-12-19T13:59:39.474Z,2.00
2022-12-19T14:01:49.626Z,1.50
2022-12-19T14:04:02.656Z,1.70
2022-12-19T14:06:24.343Z,2.20
2022-12-19T14:08:34.361Z,1.90
2022-12-19T14:11:38.868Z,1.50
2022-12-19T14:13:51.502Z,1.60
2022-12-19T14:16:20.261Z,2.30
2022-12-19T14:18:42.253Z,1.40
2022-12-19T14:22:08.918Z,2.60
2022-12-19T14:23:43.310Z,1.60
2022-12-19T14:28:18.955Z,1.60
2022-12-19T14:28:37.192Z,1.90
2022-12-19T14:30:49.918Z,2.00
2022-12-19T14:33:45.636Z,1.80
2022-12-19T14:36:07.557Z,1.70
2022-12-19T14:39:20.517Z,1.80
2022-12-19T14:41:08.325Z,1.80
2022-12-19T14:43:58.854Z,1.80
2022-12-19T14:52:34.907Z,2.20
2022-12-19T14:52:44.853Z,1.80
2022-12-19T14:56:59.758Z,2.00
2022-12-19T14:59:31.789Z,1.70
2022-12-19T15:01:41.981Z,1.60
2022-12-19T15:04:47.436Z,1.70
2022-12-19T15:07:08.677Z,2.20
2022-12-19T15:10:57.400Z,1.90
2022-12-19T15:12:56.657Z,2.10
2022-12-19T15:14:52.997Z,2.10
2022-12-19T15:17:22.046Z,1.90
2022-12-19T15:19:31.609Z,1.60
2022-12-19T15:21:41.384Z,1.90
2022-12-19T15:23:51.120Z,2.10
2022-12-19T15:26:06.623Z,1.80
2022-12-19T15:28:19.315Z,1.60
2022-12-19T15:32:36.910Z,2.10
2022-12-19T15:34:51.511Z,1.70
2022-12-19T15:37:02.743Z,1.60
2022-12-19T15:39:12.710Z,2.00
2022-12-19T15:41:26.033Z,2.20
2022-12-19T15:44:03.255Z,2.40
2022-12-19T15:46:08.019Z,1.80
2022-12-19T15:48:20.314Z,2.60
2022-12-19T15:50:32.904Z,2.30
2022-12-19T15:52:42.668Z,2.00
2022-12-19T15:54:52.666Z,2.30
2022-12-19T15:57:02.933Z,2.60
2022-12-19T15:59:24.165Z,2.20
2022-12-19T16:01:34.486Z,2.20
2022-12-19T16:03:44.470Z,2.00
2022-12-19T16:05:54.842Z,2.30
2022-12-19T16:08:05.554Z,3.00
2022-12-19T16:10:16.910Z,2.20
2022-12-19T16:12:29.502Z,2.10
2022-12-19T16:14:39.487Z,2.30
2022-12-19T16:16:52.726Z,2.20
2022-12-19T16:19:03.138Z,2.00
2022-12-19T16:21:27.491Z,2.10
2022-12-19T16:23:42.446Z,2.60
2022-12-19T16:25:54.488Z,2.30
2022-12-19T16:30:22.942Z,2.00
2022-12-19T16:32:32.952Z,2.30
2022-12-19T16:34:43.139Z,2.70
2022-12-19T16:36:53.225Z,2.50
2022-12-19T16:39:03.607Z,2.50
2022-12-19T16:41:20.740Z,2.50
2022-12-19T16:43:33.371Z,3.00
2022-12-19T16:45:43.618Z,2.30
2022-12-19T16:47:55.123Z,3.20
2022-12-19T16:50:09.407Z,2.50
2022-12-19T16:52:19.256Z,2.40
2022-12-19T16:54:29.719Z,2.10
2022-12-19T16:56:41.797Z,2.40
2022-12-19T17:00:59.283Z,2.50
2022-12-19T17:03:19.009Z,3.00
2022-12-19T17:05:30.729Z,2.70
2022-12-19T17:07:40.569Z,2.40
2022-12-19T17:09:50.485Z,3.30
2022-12-19T17:12:03.507Z,2.70
2022-12-19T17:14:19.928Z,2.50
2022-12-19T17:16:31.394Z,2.90
2022-12-19T17:18:44.627Z,2.60
2022-12-19T17:20:55.300Z,2.80
2022-12-19T17:23:08.469Z,2.80
2022-12-19T17:25:23.660Z,2.90
2022-12-19T17:27:33.699Z,2.30
2022-12-19T17:29:43.670Z,2.40
2022-12-19T17:31:53.938Z,3.00
2022-12-19T17:34:05.629Z,2.30
2022-12-19T17:36:21.377Z,2.30
2022-12-19T17:38:35.551Z,1.90
2022-12-19T17:40:46.627Z,3.00
2022-12-19T17:42:57.782Z,2.90
2022-12-19T17:45:09.460Z,2.60
2022-12-19T17:47:20.596Z,2.50
2022-12-19T17:49:33.053Z,2.60
2022-12-19T17:51:43.639Z,2.60
2022-12-19T17:53:53.602Z,2.30
2022-12-19T17:56:03.529Z,2.70
2022-12-19T17:58:14.325Z,2.00
2022-12-19T18:00:30.664Z,1.90
2022-12-19T18:02:41.198Z,1.80
2022-12-19T18:04:51.329Z,2.20
2022-12-19T18:07:01.845Z,2.10
2022-12-19T18:09:20.893Z,2.80
2022-12-19T18:11:32.237Z,1.70
2022-12-19T18:13:44.164Z,3.30
2022-12-19T18:15:54.955Z,3.40
2022-12-19T18:18:04.723Z,2.60
2022-12-19T18:20:31.165Z,2.80
2022-12-19T18:22:43.067Z,2.30
2022-12-19T18:24:53.685Z,2.30
2022-12-19T18:27:04.718Z,1.90
2022-12-19T18:29:15.158Z,2.10
2022-12-19T18:31:27.675Z,2.60
2022-12-19T18:33:41.545Z,1.90
2022-12-19T18:35:52.752Z,2.00
2022-12-19T18:38:04.338Z,2.60
2022-12-19T18:40:26.106Z,2.10
2022-12-19T18:42:40.823Z,3.10
2022-12-19T18:44:50.654Z,2.20
2022-12-19T18:47:01.631Z,1.70
2022-12-19T18:49:14.085Z,2.60
2022-12-19T18:51:24.657Z,2.30
2022-12-19T18:53:36.386Z,2.30
2022-12-19T18:55:46.133Z,2.10
2022-12-19T18:57:55.942Z,2.00
2022-12-19T19:00:06.738Z,2.40
2022-12-19T19:02:28.626Z,2.00
2022-12-19T19:04:38.733Z,2.10
2022-12-19T19:06:52.522Z,2.60
2022-12-19T19:09:02.757Z,3.30
2022-12-19T19:11:30.867Z,3.20
2022-12-19T19:13:40.839Z,3.60
2022-12-19T19:15:53.560Z,3.90
2022-12-19T19:18:05.056Z,3.30
2022-12-19T19:20:15.595Z,3.20
2022-12-19T19:22:25.282Z,3.10
2022-12-19T19:24:35.651Z,2.10
2022-12-19T19:26:45.176Z,2.00
2022-12-19T19:28:55.168Z,2.30
2022-12-19T19:31:05.533Z,3.00
2022-12-19T19:33:18.777Z,1.90
2022-12-19T19:35:29.192Z,2.20
2022-12-19T19:37:39.679Z,2.10
2022-12-19T19:39:49.268Z,3.00
2022-12-19T19:41:59.206Z,3.30
2022-12-19T19:44:09.437Z,2.90
2022-12-19T19:46:19.592Z,1.70
2022-12-19T19:48:29.685Z,2.30
2022-12-19T19:50:40.303Z,2.10
2022-12-19T19:52:50.155Z,2.80
2022-12-19T19:55:01.582Z,2.40
2022-12-19T19:57:11.315Z,2.70
2022-12-19T19:59:21.750Z,4.60
2022-12-19T20:01:33.051Z,2.70
2022-12-19T20:03:45.323Z,4.60
2022-12-19T20:06:02.952Z,3.90
2022-12-19T20:08:12.931Z,2.60
2022-12-19T20:10:22.803Z,3.70
2022-12-19T20:12:33.156Z,3.80
2022-12-19T20:14:43.383Z,3.00
2022-12-19T20:16:53.461Z,3.00
2022-12-19T20:19:03.290Z,4.10
2022-12-19T20:21:14.138Z,6.80
2022-12-19T20:23:24.303Z,5.90
2022-12-19T20:25:34.651Z,5.80
2022-12-19T20:27:44.909Z,5.60
2022-12-19T20:29:54.991Z,5.40
2022-12-19T20:32:05.449Z,4.80
2022-12-19T20:34:16.405Z,5.80
2022-12-19T20:36:26.936Z,6.60
2022-12-19T20:38:36.895Z,6.80
2022-12-19T20:40:47.347Z,8.10
2022-12-19T20:42:57.222Z,6.40
2022-12-19T20:45:07.889Z,10.40
2022-12-19T20:47:17.724Z,7.30
2022-12-19T20:49:28.545Z,8.30
2022-12-19T20:51:38.863Z,8.50
2022-12-19T20:53:49.966Z,7.80
2022-12-19T20:56:01.812Z,8.90
2022-12-19T20:58:12.656Z,9.10
2022-12-19T21:00:24.387Z,7.40
2022-12-19T21:03:00.264Z,7.50
2022-12-19T21:05:05.095Z,7.40
2022-12-19T21:07:14.963Z,6.90
2022-12-19T21:09:24.702Z,7.10
2022-12-19T21:11:36.956Z,6.90
2022-12-19T21:13:47.064Z,7.50
2022-12-19T21:15:59.167Z,8.50
2022-12-19T21:18:10.047Z,7.70
2022-12-19T21:20:19.892Z,7.40
2022-12-19T21:22:30.141Z,7.00
2022-12-19T21:24:40.131Z,7.70
2022-12-19T21:26:57.620Z,7.10
2022-12-19T21:29:08.861Z,6.70
2022-12-19T21:31:20.920Z,6.00
2022-12-19T21:33:31.632Z,6.30
2022-12-19T21:35:41.621Z,7.10
2022-12-19T21:37:52.604Z,6.40
2022-12-19T21:40:02.407Z,5.50
2022-12-19T21:42:12.089Z,4.80
2022-12-19T21:44:21.895Z,4.30
2022-12-19T21:46:33.550Z,4.00
2022-12-19T21:48:46.590Z,3.90
2022-12-19T21:51:00.411Z,3.30
2022-12-19T21:53:11.256Z,2.40
2022-12-19T21:55:21.483Z,2.10
2022-12-19T21:57:31.713Z,2.50
2022-12-19T21:59:41.660Z,2.60
2022-12-19T22:01:51.582Z,1.90
2022-12-19T22:04:04.841Z,2.30
2022-12-19T22:06:23.975Z,1.80
2022-12-19T22:08:38.134Z,2.30
2022-12-19T22:10:47.775Z,3.60
2022-12-19T22:12:57.916Z,3.00
2022-12-19T22:15:09.023Z,3.70
2022-12-19T22:17:19.664Z,3.40
2022-12-19T22:19:29.954Z,3.10
2022-12-19T22:21:39.620Z,2.50
2022-12-19T22:23:49.837Z,2.20
2022-12-19T22:26:07.637Z,2.90
2022-12-19T22:28:18.184Z,2.40
2022-12-19T22:30:28.336Z,2.60
2022-12-19T22:32:38.333Z,2.40
2022-12-19T22:34:51.009Z,1.50
2022-12-19T22:37:00.968Z,1.70
2022-12-19T22:39:12.688Z,1.90
2022-12-19T22:41:23.033Z,1.60
2022-12-19T22:43:32.751Z,2.00
2022-12-19T22:45:42.725Z,2.10
2022-12-19T22:47:52.908Z,2.50
2022-12-19T22:50:02.368Z,2.10
2022-12-19T22:52:12.037Z,2.20
2022-12-19T22:54:21.742Z,2.00
2022-12-19T22:56:33.191Z,2.20
2022-12-19T23:00:52.069Z,2.10
2022-12-19T23:03:02.081Z,2.00
2022-12-19T23:05:12.561Z,2.10
2022-12-19T23:07:22.559Z,1.80
2022-12-19T23:09:32.637Z,1.80
2022-12-19T23:11:44.590Z,2.00
2022-12-19T23:13:54.935Z,1.70
2022-12-19T23:16:05.373Z,1.70
2022-12-19T23:18:15.879Z,2.10
2022-12-19T23:20:25.621Z,1.70
2022-12-19T23:22:35.483Z,1.60
2022-12-19T23:24:45.326Z,1.40
2022-12-19T23:26:55.089Z,1.90
2022-12-19T23:29:07.560Z,1.80
2022-12-19T23:31:18.083Z,1.40
2022-12-19T23:33:27.702Z,1.90
2022-12-19T23:35:37.989Z,1.80
2022-12-19T23:37:47.990Z,1.50
2022-12-19T23:39:58.058Z,1.90
2022-12-19T23:42:07.886Z,1.80
2022-12-19T23:44:17.892Z,1.50
2022-12-19T23:46:29.243Z,1.40
2022-12-19T23:48:39.161Z,1.70
2022-12-19T23:50:49.346Z,1.70
2022-12-19T23:52:59.403Z,1.90
2022-12-19T23:55:10.607Z,1.60
2022-12-19T23:57:20.490Z,1.80
2022-12-19T23:59:31.328Z,1.50
